sensor_id;sensor_type;location;lat;lon;timestamp;pressure;altitude;pressure_sealevel;temperature;humidity
66857;BME280;53766;50.280;19.160;2023-02-28T00:01:32;99633.97;;;15.95;41.99
66857;BME280;53766;50.280;19.160;2023-02-28T00:03:59;99630.34;;;15.96;41.78
66857;BME280;53766;50.280;19.160;2023-02-28T00:06:27;99631.31;;;15.95;41.76
66857;BME280;53766;50.280;19.160;2023-02-28T00:08:54;99631.31;;;15.95;41.92
66857;BME280;53766;50.280;19.160;2023-02-28T00:11:22;99630.63;;;15.93;41.71
66857;BME280;53766;50.280;19.160;2023-02-28T00:13:50;99629.66;;;15.94;41.77
66857;BME280;53766;50.280;19.160;2023-02-28T00:16:20;99623.34;;;15.95;41.87
66857;BME280;53766;50.280;19.160;2023-02-28T00:18:49;99627.16;;;15.93;41.91
66857;BME280;53766;50.280;19.160;2023-02-28T00:21:18;99629.00;;;15.92;41.85
66857;BME280;53766;50.280;19.160;2023-02-28T00:23:45;99626.34;;;15.92;41.79
66857;BME280;53766;50.280;19.160;2023-02-28T00:26:13;99633.47;;;15.92;41.88
66857;BME280;53766;50.280;19.160;2023-02-28T00:28:40;99628.16;;;15.92;41.85
66857;BME280;53766;50.280;19.160;2023-02-28T00:31:08;99630.16;;;15.90;41.96
66857;BME280;53766;50.280;19.160;2023-02-28T00:33:35;99630.16;;;15.90;41.89
66857;BME280;53766;50.280;19.160;2023-02-28T00:36:11;99630.97;;;15.90;41.83
66857;BME280;53766;50.280;19.160;2023-02-28T00:38:40;99630.16;;;15.90;41.82
66857;BME280;53766;50.280;19.160;2023-02-28T00:41:08;99635.47;;;15.90;41.84
66857;BME280;53766;50.280;19.160;2023-02-28T00:43:37;99637.25;;;15.89;41.94
66857;BME280;53766;50.280;19.160;2023-02-28T00:46:06;99633.47;;;15.92;41.72
66857;BME280;53766;50.280;19.160;2023-02-28T00:48:34;99641.59;;;15.90;41.92
66857;BME280;53766;50.280;19.160;2023-02-28T00:51:01;99639.09;;;15.89;41.76
66857;BME280;53766;50.280;19.160;2023-02-28T00:53:29;99643.56;;;15.88;41.90
66857;BME280;53766;50.280;19.160;2023-02-28T00:55:57;99639.25;;;15.87;42.00
66857;BME280;53766;50.280;19.160;2023-02-28T00:58:25;99643.56;;;15.88;41.92
66857;BME280;53766;50.280;19.160;2023-02-28T01:00:53;99645.56;;;15.86;42.12
66857;BME280;53766;50.280;19.160;2023-02-28T01:03:21;99648.06;;;15.88;41.92
66857;BME280;53766;50.280;19.160;2023-02-28T01:05:51;99641.91;;;15.87;41.75
66857;BME280;53766;50.280;19.160;2023-02-28T01:08:19;99647.22;;;15.87;41.71
66857;BME280;53766;50.280;19.160;2023-02-28T01:10:47;99641.91;;;15.87;41.95
66857;BME280;53766;50.280;19.160;2023-02-28T01:13:15;99641.91;;;15.87;41.65
66857;BME280;53766;50.280;19.160;2023-02-28T01:15:50;99640.25;;;15.86;41.74
66857;BME280;53766;50.280;19.160;2023-02-28T01:18:18;99644.72;;;15.86;41.76
66857;BME280;53766;50.280;19.160;2023-02-28T01:20:46;99642.22;;;15.84;41.92
66857;BME280;53766;50.280;19.160;2023-02-28T01:23:14;99641.41;;;15.83;41.71
66857;BME280;53766;50.280;19.160;2023-02-28T01:25:41;99631.59;;;15.84;41.87
66857;BME280;53766;50.280;19.160;2023-02-28T01:28:09;99640.56;;;15.83;41.86
66857;BME280;53766;50.280;19.160;2023-02-28T01:30:36;99640.56;;;15.83;41.80
66857;BME280;53766;50.280;19.160;2023-02-28T01:33:04;99644.19;;;15.82;41.76
66857;BME280;53766;50.280;19.160;2023-02-28T01:35:33;99636.22;;;15.82;41.75
66857;BME280;53766;50.280;19.160;2023-02-28T01:38:02;99629.28;;;15.81;41.98
66857;BME280;53766;50.280;19.160;2023-02-28T01:40:47;99637.25;;;15.81;41.68
66857;BME280;53766;50.280;19.160;2023-02-28T01:43:55;99634.59;;;15.81;41.83
66857;BME280;53766;50.280;19.160;2023-02-28T01:46:12;99631.25;;;15.79;41.71
66857;BME280;53766;50.280;19.160;2023-02-28T01:48:48;99624.94;;;15.80;41.83
66857;BME280;53766;50.280;19.160;2023-02-28T01:51:29;99630.25;;;15.80;41.78
66857;BME280;53766;50.280;19.160;2023-02-28T01:54:05;99632.22;;;15.78;41.62
66857;BME280;53766;50.280;19.160;2023-02-28T01:56:45;99633.03;;;15.78;41.87
66857;BME280;53766;50.280;19.160;2023-02-28T01:59:20;99624.25;;;15.78;41.67
66857;BME280;53766;50.280;19.160;2023-02-28T02:01:49;99625.94;;;15.79;41.65
66857;BME280;53766;50.280;19.160;2023-02-28T02:04:17;99626.91;;;15.78;41.79
66857;BME280;53766;50.280;19.160;2023-02-28T02:06:47;99624.25;;;15.78;41.61
66857;BME280;53766;50.280;19.160;2023-02-28T02:09:15;99618.94;;;15.78;41.75
66857;BME280;53766;50.280;19.160;2023-02-28T02:11:44;99621.59;;;15.78;41.67
66857;BME280;53766;50.280;19.160;2023-02-28T02:14:40;99626.91;;;15.78;41.73
66857;BME280;53766;50.280;19.160;2023-02-28T02:17:35;99622.59;;;15.77;41.75
66857;BME280;53766;50.280;19.160;2023-02-28T02:34:20;99619.94;;;15.77;41.68
66857;BME280;53766;50.280;19.160;2023-02-28T02:43:01;99619.28;;;15.75;41.75
66857;BME280;53766;50.280;19.160;2023-02-28T02:45:34;99611.44;;;15.73;41.65
66857;BME280;53766;50.280;19.160;2023-02-28T02:48:06;99612.94;;;15.76;41.74
66857;BME280;53766;50.280;19.160;2023-02-28T02:50:43;99604.31;;;15.74;41.72
66857;BME280;53766;50.280;19.160;2023-02-28T02:53:14;99605.16;;;15.74;41.61
66857;BME280;53766;50.280;19.160;2023-02-28T02:55:47;99606.00;;;15.75;41.54
66857;BME280;53766;50.280;19.160;2023-02-28T02:58:24;99611.59;;;15.72;41.70
66857;BME280;53766;50.280;19.160;2023-02-28T03:00:57;99613.28;;;15.73;41.69
66857;BME280;53766;50.280;19.160;2023-02-28T03:03:26;99613.28;;;15.73;41.76
66857;BME280;53766;50.280;19.160;2023-02-28T03:06:00;99615.22;;;15.71;41.63
66857;BME280;53766;50.280;19.160;2023-02-28T03:08:29;99610.78;;;15.71;41.74
66857;BME280;53766;50.280;19.160;2023-02-28T03:11:03;99621.41;;;15.71;41.61
66857;BME280;53766;50.280;19.160;2023-02-28T03:13:47;99622.22;;;15.72;41.60
66857;BME280;53766;50.280;19.160;2023-02-28T03:22:20;99620.69;;;15.69;41.66
66857;BME280;53766;50.280;19.160;2023-02-28T03:24:56;99617.22;;;15.69;41.56
66857;BME280;53766;50.280;19.160;2023-02-28T03:27:30;99626.81;;;15.70;41.63
66857;BME280;53766;50.280;19.160;2023-02-28T03:30:07;99621.50;;;15.70;41.82
66857;BME280;53766;50.280;19.160;2023-02-28T03:32:42;99624.16;;;15.70;41.64
66857;BME280;53766;50.280;19.160;2023-02-28T03:35:22;99629.81;;;15.67;41.82
66857;BME280;53766;50.280;19.160;2023-02-28T03:37:55;99629.66;;;15.68;41.85
66857;BME280;53766;50.280;19.160;2023-02-28T03:40:27;99629.81;;;15.67;41.66
66857;BME280;53766;50.280;19.160;2023-02-28T03:43:00;99633.44;;;15.66;41.59
66857;BME280;53766;50.280;19.160;2023-02-28T03:45:32;99632.47;;;15.67;41.68
66857;BME280;53766;50.280;19.160;2023-02-28T03:48:07;99625.31;;;15.67;41.75
66857;BME280;53766;50.280;19.160;2023-02-28T03:50:42;99638.75;;;15.66;41.54
66857;BME280;53766;50.280;19.160;2023-02-28T03:53:29;99633.44;;;15.66;41.77
66857;BME280;53766;50.280;19.160;2023-02-28T03:56:05;99640.75;;;15.63;41.54
66857;BME280;53766;50.280;19.160;2023-02-28T04:01:38;99638.94;;;15.64;41.74
66857;BME280;53766;50.280;19.160;2023-02-28T04:04:09;99645.22;;;15.63;41.65
66857;BME280;53766;50.280;19.160;2023-02-28T04:06:38;99637.44;;;15.61;41.61
66857;BME280;53766;50.280;19.160;2023-02-28T04:09:07;99641.88;;;15.61;41.64
66857;BME280;53766;50.280;19.160;2023-02-28T04:11:40;99650.69;;;15.61;41.61
66857;BME280;53766;50.280;19.160;2023-02-28T04:14:10;99646.38;;;15.60;41.58
66857;BME280;53766;50.280;19.160;2023-02-28T04:16:40;99650.84;;;15.60;41.78
66857;BME280;53766;50.280;19.160;2023-02-28T04:19:10;99645.38;;;15.61;41.66
66857;BME280;53766;50.280;19.160;2023-02-28T04:21:44;99650.03;;;15.59;41.69
66857;BME280;53766;50.280;19.160;2023-02-28T04:24:14;99652.69;;;15.59;41.54
66857;BME280;53766;50.280;19.160;2023-02-28T04:26:45;99658.00;;;15.59;41.49
66857;BME280;53766;50.280;19.160;2023-02-28T04:29:19;99659.78;;;15.59;41.56
66857;BME280;53766;50.280;19.160;2023-02-28T04:31:46;99654.47;;;15.59;41.49
66857;BME280;53766;50.280;19.160;2023-02-28T04:34:14;99669.59;;;15.58;41.69
66857;BME280;53766;50.280;19.160;2023-02-28T04:36:41;99669.59;;;15.58;41.68
66857;BME280;53766;50.280;19.160;2023-02-28T04:39:09;99667.06;;;15.57;41.60
66857;BME280;53766;50.280;19.160;2023-02-28T04:41:37;99667.94;;;15.57;41.71
66857;BME280;53766;50.280;19.160;2023-02-28T04:44:04;99675.03;;;15.57;41.69
66857;BME280;53766;50.280;19.160;2023-02-28T04:46:32;99666.25;;;15.56;41.51
66857;BME280;53766;50.280;19.160;2023-02-28T04:48:59;99675.22;;;15.55;41.67
66857;BME280;53766;50.280;19.160;2023-02-28T04:51:26;99675.22;;;15.55;41.56
66857;BME280;53766;50.280;19.160;2023-02-28T04:53:55;99669.91;;;15.55;41.76
66857;BME280;53766;50.280;19.160;2023-02-28T04:56:22;99678.03;;;15.54;41.55
66857;BME280;53766;50.280;19.160;2023-02-28T04:58:50;99670.06;;;15.54;41.61
66857;BME280;53766;50.280;19.160;2023-02-28T05:01:32;99671.88;;;15.53;41.76
66857;BME280;53766;50.280;19.160;2023-02-28T05:04:01;99670.19;;;15.52;41.76
66857;BME280;53766;50.280;19.160;2023-02-28T05:06:30;99665.75;;;15.53;41.47
66857;BME280;53766;50.280;19.160;2023-02-28T05:08:59;99675.50;;;15.52;41.78
66857;BME280;53766;50.280;19.160;2023-02-28T05:11:32;99673.84;;;15.51;41.50
66857;BME280;53766;50.280;19.160;2023-02-28T05:14:05;99672.84;;;15.52;41.38
66857;BME280;53766;50.280;19.160;2023-02-28T05:16:33;99673.84;;;15.51;41.53
66857;BME280;53766;50.280;19.160;2023-02-28T05:19:00;99673.84;;;15.51;41.52
66857;BME280;53766;50.280;19.160;2023-02-28T05:24:00;99677.47;;;15.50;41.82
66857;BME280;53766;50.280;19.160;2023-02-28T05:26:28;99674.16;;;15.48;41.63
66857;BME280;53766;50.280;19.160;2023-02-28T05:28:56;99673.50;;;15.46;41.72
66857;BME280;53766;50.280;19.160;2023-02-28T05:31:24;99678.13;;;15.44;41.66
66857;BME280;53766;50.280;19.160;2023-02-28T05:33:51;99681.75;;;15.43;41.75
66857;BME280;53766;50.280;19.160;2023-02-28T05:36:19;99685.41;;;15.42;41.59
66857;BME280;53766;50.280;19.160;2023-02-28T05:38:48;99691.69;;;15.41;41.59
66857;BME280;53766;50.280;19.160;2023-02-28T05:41:16;99695.16;;;15.41;41.58
66857;BME280;53766;50.280;19.160;2023-02-28T05:43:47;99695.34;;;15.40;41.73
66857;BME280;53766;50.280;19.160;2023-02-28T05:46:14;99698.00;;;15.40;41.65
66857;BME280;53766;50.280;19.160;2023-02-28T05:48:46;99699.97;;;15.38;41.80
66857;BME280;53766;50.280;19.160;2023-02-28T05:51:13;99700.94;;;15.37;41.64
66857;BME280;53766;50.280;19.160;2023-02-28T05:53:41;99699.16;;;15.37;41.77
66857;BME280;53766;50.280;19.160;2023-02-28T05:56:08;99703.59;;;15.37;41.51
66857;BME280;53766;50.280;19.160;2023-02-28T05:58:36;99714.22;;;15.37;41.34
66857;BME280;53766;50.280;19.160;2023-02-28T06:01:36;99714.22;;;15.37;41.53
66857;BME280;53766;50.280;19.160;2023-02-28T06:04:06;99708.91;;;15.37;41.49
66857;BME280;53766;50.280;19.160;2023-02-28T06:06:34;99714.22;;;15.37;41.27
66857;BME280;53766;50.280;19.160;2023-02-28T06:09:06;99712.56;;;15.36;41.36
66857;BME280;53766;50.280;19.160;2023-02-28T06:11:35;99714.22;;;15.37;41.29
66857;BME280;53766;50.280;19.160;2023-02-28T06:14:03;99714.22;;;15.37;41.13
66857;BME280;53766;50.280;19.160;2023-02-28T06:16:32;99722.19;;;15.37;41.33
66857;BME280;53766;50.280;19.160;2023-02-28T06:19:03;99723.03;;;15.37;41.24
66857;BME280;53766;50.280;19.160;2023-02-28T06:21:31;99725.00;;;15.35;41.34
66857;BME280;53766;50.280;19.160;2023-02-28T06:23:59;99728.50;;;15.36;41.27
66857;BME280;53766;50.280;19.160;2023-02-28T06:26:27;99733.81;;;15.36;41.10
66857;BME280;53766;50.280;19.160;2023-02-28T06:28:54;99735.47;;;15.37;41.20
66857;BME280;53766;50.280;19.160;2023-02-28T06:31:22;99736.31;;;15.37;41.06
66857;BME280;53766;50.280;19.160;2023-02-28T06:33:50;99738.09;;;15.37;41.13
66857;BME280;53766;50.280;19.160;2023-02-28T06:36:18;99736.97;;;15.39;41.01
66857;BME280;53766;50.280;19.160;2023-02-28T06:38:45;99736.81;;;15.41;41.09
66857;BME280;53766;50.280;19.160;2023-02-28T06:41:15;99731.50;;;15.41;41.11
66857;BME280;53766;50.280;19.160;2023-02-28T06:43:43;99734.03;;;15.42;41.03
66857;BME280;53766;50.280;19.160;2023-02-28T06:46:12;99735.84;;;15.42;40.98
66857;BME280;53766;50.280;19.160;2023-02-28T06:48:43;99742.81;;;15.43;41.40
66857;BME280;53766;50.280;19.160;2023-02-28T06:51:17;99736.69;;;15.42;41.32
66857;BME280;53766;50.280;19.160;2023-02-28T06:53:45;99734.84;;;15.43;41.02
66857;BME280;53766;50.280;19.160;2023-02-28T06:56:14;99734.84;;;15.43;40.89
66857;BME280;53766;50.280;19.160;2023-02-28T06:58:46;99736.53;;;15.44;41.21
66857;BME280;53766;50.280;19.160;2023-02-28T07:01:13;99745.19;;;15.46;41.28
66857;BME280;53766;50.280;19.160;2023-02-28T07:03:41;99750.50;;;15.46;41.08
66857;BME280;53766;50.280;19.160;2023-02-28T07:06:08;99748.66;;;15.47;40.94
66857;BME280;53766;50.280;19.160;2023-02-28T07:08:37;99757.47;;;15.47;41.19
66857;BME280;53766;50.280;19.160;2023-02-28T07:11:04;99755.81;;;15.46;41.20
66857;BME280;53766;50.280;19.160;2023-02-28T07:13:32;99756.47;;;15.48;41.10
66857;BME280;53766;50.280;19.160;2023-02-28T07:16:05;99764.41;;;15.48;41.02
66857;BME280;53766;50.280;19.160;2023-02-28T07:18:34;99755.63;;;15.48;41.17
66857;BME280;53766;50.280;19.160;2023-02-28T07:21:03;99759.97;;;15.49;41.10
66857;BME280;53766;50.280;19.160;2023-02-28T07:23:31;99755.47;;;15.49;40.92
66857;BME280;53766;50.280;19.160;2023-02-28T07:26:00;99752.69;;;15.51;41.22
66857;BME280;53766;50.280;19.160;2023-02-28T07:28:27;99763.13;;;15.52;41.02
66857;BME280;53766;50.280;19.160;2023-02-28T07:30:55;99758.00;;;15.51;41.13
66857;BME280;53766;50.280;19.160;2023-02-28T07:33:22;99757.81;;;15.52;41.12
66857;BME280;53766;50.280;19.160;2023-02-28T07:35:50;99758.50;;;15.54;41.18
66857;BME280;53766;50.280;19.160;2023-02-28T07:38:18;99764.50;;;15.56;41.13
66857;BME280;53766;50.280;19.160;2023-02-28T07:40:46;99760.19;;;15.55;41.07
66857;BME280;53766;50.280;19.160;2023-02-28T07:43:13;99763.66;;;15.56;41.08
66857;BME280;53766;50.280;19.160;2023-02-28T07:45:40;99761.84;;;15.56;41.16
66857;BME280;53766;50.280;19.160;2023-02-28T07:48:08;99765.50;;;15.55;41.10
66857;BME280;53766;50.280;19.160;2023-02-28T07:50:37;99764.50;;;15.56;40.91
66857;BME280;53766;50.280;19.160;2023-02-28T07:53:05;99760.19;;;15.55;41.02
66857;BME280;53766;50.280;19.160;2023-02-28T07:55:32;99760.19;;;15.55;41.00
66857;BME280;53766;50.280;19.160;2023-02-28T07:57:59;99763.66;;;15.56;41.18
66857;BME280;53766;50.280;19.160;2023-02-28T08:00:27;99760.88;;;15.57;41.06
66857;BME280;53766;50.280;19.160;2023-02-28T08:02:56;99764.50;;;15.56;41.17
66857;BME280;53766;50.280;19.160;2023-02-28T08:05:23;99762.53;;;15.58;41.22
66857;BME280;53766;50.280;19.160;2023-02-28T08:07:53;99766.19;;;15.57;41.22
66857;BME280;53766;50.280;19.160;2023-02-28T08:10:21;99766.88;;;15.59;41.13
66857;BME280;53766;50.280;19.160;2023-02-28T08:12:49;99763.34;;;15.59;41.25
66857;BME280;53766;50.280;19.160;2023-02-28T08:15:16;99762.53;;;15.58;41.15
66857;BME280;53766;50.280;19.160;2023-02-28T08:17:44;99770.50;;;15.58;41.32
66857;BME280;53766;50.280;19.160;2023-02-28T08:20:11;99765.19;;;15.58;41.19
66857;BME280;53766;50.280;19.160;2023-02-28T08:22:39;99759.88;;;15.58;41.33
66857;BME280;53766;50.280;19.160;2023-02-28T08:25:06;99762.66;;;15.57;41.16
66857;BME280;53766;50.280;19.160;2023-02-28T08:27:35;99761.56;;;15.59;41.39
66857;BME280;53766;50.280;19.160;2023-02-28T08:30:03;99760.69;;;15.59;41.00
66857;BME280;53766;50.280;19.160;2023-02-28T08:32:33;99757.91;;;15.60;41.10
66857;BME280;53766;50.280;19.160;2023-02-28T08:35:00;99757.91;;;15.60;41.37
66857;BME280;53766;50.280;19.160;2023-02-28T08:37:29;99756.75;;;15.63;40.97
66857;BME280;53766;50.280;19.160;2023-02-28T08:39:57;99767.38;;;15.63;41.07
66857;BME280;53766;50.280;19.160;2023-02-28T08:42:26;99766.53;;;15.62;41.19
66857;BME280;53766;50.280;19.160;2023-02-28T08:44:53;99773.53;;;15.63;41.03
66857;BME280;53766;50.280;19.160;2023-02-28T08:47:21;99771.84;;;15.62;41.02
66857;BME280;53766;50.280;19.160;2023-02-28T08:49:48;99775.19;;;15.64;41.12
66857;BME280;53766;50.280;19.160;2023-02-28T08:52:16;99761.91;;;15.64;41.19
66857;BME280;53766;50.280;19.160;2023-02-28T08:54:43;99768.22;;;15.63;41.19
66857;BME280;53766;50.280;19.160;2023-02-28T08:57:11;99766.22;;;15.66;41.01
66857;BME280;53766;50.280;19.160;2023-02-28T08:59:38;99767.22;;;15.64;41.18
66857;BME280;53766;50.280;19.160;2023-02-28T09:02:06;99769.88;;;15.64;41.18
66857;BME280;53766;50.280;19.160;2023-02-28T09:04:33;99769.88;;;15.64;41.11
66857;BME280;53766;50.280;19.160;2023-02-28T09:07:01;99766.22;;;15.66;40.99
66857;BME280;53766;50.280;19.160;2023-02-28T09:09:28;99771.53;;;15.66;41.19
66857;BME280;53766;50.280;19.160;2023-02-28T09:11:57;99773.22;;;15.67;40.91
66857;BME280;53766;50.280;19.160;2023-02-28T09:14:24;99772.41;;;15.66;40.99
66857;BME280;53766;50.280;19.160;2023-02-28T09:16:52;99769.56;;;15.68;40.83
66857;BME280;53766;50.280;19.160;2023-02-28T09:19:39;99771.25;;;15.69;40.96
66857;BME280;53766;50.280;19.160;2023-02-28T09:22:26;99777.25;;;15.71;41.08
66857;BME280;53766;50.280;19.160;2023-02-28T09:25:14;99775.44;;;15.71;40.74
66857;BME280;53766;50.280;19.160;2023-02-28T09:28:02;99776.28;;;15.72;41.08
66857;BME280;53766;50.280;19.160;2023-02-28T09:30:53;99776.28;;;15.72;40.72
66857;BME280;53766;50.280;19.160;2023-02-28T09:33:41;99764.69;;;15.73;40.76
66857;BME280;53766;50.280;19.160;2023-02-28T09:36:29;99772.66;;;15.73;40.82
66857;BME280;53766;50.280;19.160;2023-02-28T09:39:10;99774.31;;;15.74;40.85
66857;BME280;53766;50.280;19.160;2023-02-28T09:41:42;99774.31;;;15.74;40.73
66857;BME280;53766;50.280;19.160;2023-02-28T09:44:31;99774.16;;;15.75;40.59
66857;BME280;53766;50.280;19.160;2023-02-28T09:47:12;99782.13;;;15.75;40.77
66857;BME280;53766;50.280;19.160;2023-02-28T09:49:44;99781.28;;;15.75;40.63
66857;BME280;53766;50.280;19.160;2023-02-28T09:52:17;99782.25;;;15.74;40.82
66857;BME280;53766;50.280;19.160;2023-02-28T09:54:46;99781.28;;;15.75;40.82
66857;BME280;53766;50.280;19.160;2023-02-28T10:05:33;99786.28;;;15.78;41.18
66857;BME280;53766;50.280;19.160;2023-02-28T10:08:05;99779.47;;;15.75;41.19
66857;BME280;53766;50.280;19.160;2023-02-28T10:10:44;99788.78;;;15.79;41.33
66857;BME280;53766;50.280;19.160;2023-02-28T10:13:16;99790.44;;;15.80;41.47
66857;BME280;53766;50.280;19.160;2023-02-28T10:15:47;99784.16;;;15.81;41.33
66857;BME280;53766;50.280;19.160;2023-02-28T10:18:21;99781.50;;;15.81;41.52
66857;BME280;53766;50.280;19.160;2023-02-28T10:20:53;99778.72;;;15.83;40.96
66857;BME280;53766;50.280;19.160;2023-02-28T10:23:26;99771.56;;;15.83;40.72
66857;BME280;53766;50.280;19.160;2023-02-28T10:26:01;99764.41;;;15.84;40.81
66857;BME280;53766;50.280;19.160;2023-02-28T10:28:32;99768.09;;;15.83;40.73
66857;BME280;53766;50.280;19.160;2023-02-28T10:31:00;99764.41;;;15.84;40.64
66857;BME280;53766;50.280;19.160;2023-02-28T10:33:30;99763.41;;;15.85;40.46
66857;BME280;53766;50.280;19.160;2023-02-28T10:35:58;99758.78;;;15.87;40.55
66857;BME280;53766;50.280;19.160;2023-02-28T10:38:35;99761.31;;;15.89;40.42
66857;BME280;53766;50.280;19.160;2023-02-28T10:41:25;99757.66;;;15.90;40.52
66857;BME280;53766;50.280;19.160;2023-02-28T10:44:22;99751.34;;;15.91;40.33
66857;BME280;53766;50.280;19.160;2023-02-28T10:46:50;99750.38;;;15.92;40.44
66857;BME280;53766;50.280;19.160;2023-02-28T10:49:24;99745.88;;;15.92;40.18
66857;BME280;53766;50.280;19.160;2023-02-28T10:51:57;99741.41;;;15.93;40.34
66857;BME280;53766;50.280;19.160;2023-02-28T10:54:34;99746.72;;;15.93;40.40
66857;BME280;53766;50.280;19.160;2023-02-28T10:59:33;99744.88;;;15.93;40.17
66857;BME280;53766;50.280;19.160;2023-02-28T11:02:07;99736.63;;;15.96;40.03
66857;BME280;53766;50.280;19.160;2023-02-28T11:04:49;99727.66;;;15.97;39.97
66857;BME280;53766;50.280;19.160;2023-02-28T11:07:17;99738.28;;;15.97;40.17
66857;BME280;53766;50.280;19.160;2023-02-28T11:09:51;99732.97;;;15.97;40.25
66857;BME280;53766;50.280;19.160;2023-02-28T11:14:52;99735.47;;;15.99;40.06
66857;BME280;53766;50.280;19.160;2023-02-28T11:17:26;99727.34;;;16.00;40.09
66857;BME280;53766;50.280;19.160;2023-02-28T11:20:00;99716.72;;;16.00;40.02
66857;BME280;53766;50.280;19.160;2023-02-28T11:22:33;99725.66;;;15.99;40.01
66857;BME280;53766;50.280;19.160;2023-02-28T11:25:10;99718.38;;;16.01;39.90
66857;BME280;53766;50.280;19.160;2023-02-28T11:27:50;99714.72;;;16.02;39.86
66857;BME280;53766;50.280;19.160;2023-02-28T11:32:57;99717.38;;;16.02;39.99
66857;BME280;53766;50.280;19.160;2023-02-28T11:35:33;99707.59;;;16.03;40.05
66857;BME280;53766;50.280;19.160;2023-02-28T11:38:04;99707.41;;;16.04;39.98
66857;BME280;53766;50.280;19.160;2023-02-28T11:40:48;99708.41;;;16.03;40.01
66857;BME280;53766;50.280;19.160;2023-02-28T11:43:28;99695.97;;;16.04;40.08
66857;BME280;53766;50.280;19.160;2023-02-28T11:46:01;99693.16;;;16.06;40.04
66857;BME280;53766;50.280;19.160;2023-02-28T11:49:11;99687.84;;;16.06;40.09
66857;BME280;53766;50.280;19.160;2023-02-28T11:52:01;99687.84;;;16.06;40.03
66857;BME280;53766;50.280;19.160;2023-02-28T12:06:00;99678.88;;;16.07;39.97
66857;BME280;53766;50.280;19.160;2023-02-28T12:17:45;99670.75;;;16.08;40.02
66857;BME280;53766;50.280;19.160;2023-02-28T12:25:30;99673.94;;;16.12;40.02
66857;BME280;53766;50.280;19.160;2023-02-28T12:28:04;99677.25;;;16.14;39.92
66857;BME280;53766;50.280;19.160;2023-02-28T12:30:37;99667.44;;;16.14;39.97
66857;BME280;53766;50.280;19.160;2023-02-28T12:33:09;99669.97;;;16.16;40.13
66857;BME280;53766;50.280;19.160;2023-02-28T12:35:49;99665.63;;;16.15;40.24
66857;BME280;53766;50.280;19.160;2023-02-28T12:38:41;99664.66;;;16.16;40.17
66857;BME280;53766;50.280;19.160;2023-02-28T12:41:33;99669.78;;;16.17;40.10
66857;BME280;53766;50.280;19.160;2023-02-28T12:44:07;99660.00;;;16.18;40.26
66857;BME280;53766;50.280;19.160;2023-02-28T12:46:41;99652.84;;;16.18;40.06
66857;BME280;53766;50.280;19.160;2023-02-28T12:49:14;99654.69;;;16.18;40.15
66857;BME280;53766;50.280;19.160;2023-02-28T12:51:44;99650.19;;;16.18;40.12
66857;BME280;53766;50.280;19.160;2023-02-28T12:54:19;99653.69;;;16.19;40.05
66857;BME280;53766;50.280;19.160;2023-02-28T12:57:15;99641.22;;;16.19;40.15
66857;BME280;53766;50.280;19.160;2023-02-28T12:59:50;99640.38;;;16.19;40.31
66857;BME280;53766;50.280;19.160;2023-02-28T13:10:51;99650.38;;;16.25;40.12
66857;BME280;53766;50.280;19.160;2023-02-28T13:13:24;99650.06;;;16.28;40.05
66857;BME280;53766;50.280;19.160;2023-02-28T13:16:01;99641.09;;;16.29;40.17
66857;BME280;53766;50.280;19.160;2023-02-28T13:18:35;99636.75;;;16.28;40.04
66857;BME280;53766;50.280;19.160;2023-02-28T13:21:10;99643.09;;;16.27;40.15
66857;BME280;53766;50.280;19.160;2023-02-28T13:34:46;99639.59;;;16.27;40.34
66857;BME280;53766;50.280;19.160;2023-02-28T13:37:37;99637.59;;;16.29;40.14
66857;BME280;53766;50.280;19.160;2023-02-28T13:47:45;99633.81;;;16.31;40.17
66857;BME280;53766;50.280;19.160;2023-02-28T13:50:23;99638.25;;;16.31;40.08
66857;BME280;53766;50.280;19.160;2023-02-28T13:53:05;99637.44;;;16.30;40.18
66857;BME280;53766;50.280;19.160;2023-02-28T13:55:48;99625.63;;;16.33;40.16
66857;BME280;53766;50.280;19.160;2023-02-28T13:59:25;99624.16;;;16.30;40.19
66857;BME280;53766;50.280;19.160;2023-02-28T14:01:37;99628.47;;;16.31;40.22
66857;BME280;53766;50.280;19.160;2023-02-28T14:07:00;99619.50;;;16.32;40.26
66857;BME280;53766;50.280;19.160;2023-02-28T14:09:31;99614.19;;;16.32;40.03
66857;BME280;53766;50.280;19.160;2023-02-28T14:18:32;99606.06;;;16.34;39.99
66857;BME280;53766;50.280;19.160;2023-02-28T14:21:09;99617.50;;;16.34;40.24
66857;BME280;53766;50.280;19.160;2023-02-28T14:32:54;99596.25;;;16.34;40.08
66857;BME280;53766;50.280;19.160;2023-02-28T14:35:49;99592.59;;;16.35;40.03
66857;BME280;53766;50.280;19.160;2023-02-28T14:38:25;99586.28;;;16.36;40.04
66857;BME280;53766;50.280;19.160;2023-02-28T14:40:57;99592.59;;;16.35;40.07
66857;BME280;53766;50.280;19.160;2023-02-28T14:43:27;99595.09;;;16.37;40.13
66857;BME280;53766;50.280;19.160;2023-02-28T14:46:00;99583.63;;;16.36;40.02
66857;BME280;53766;50.280;19.160;2023-02-28T14:48:28;99585.47;;;16.36;40.01
66857;BME280;53766;50.280;19.160;2023-02-28T14:51:00;99588.28;;;16.34;40.18
66857;BME280;53766;50.280;19.160;2023-02-28T14:53:30;99584.63;;;16.35;40.17
66857;BME280;53766;50.280;19.160;2023-02-28T14:56:02;99588.94;;;16.36;39.95
66857;BME280;53766;50.280;19.160;2023-02-28T14:58:32;99584.78;;;16.34;40.02
66857;BME280;53766;50.280;19.160;2023-02-28T15:01:02;99587.28;;;16.35;40.03
66857;BME280;53766;50.280;19.160;2023-02-28T15:03:38;99594.59;;;16.33;40.00
66857;BME280;53766;50.280;19.160;2023-02-28T15:06:13;99584.78;;;16.34;40.05
66857;BME280;53766;50.280;19.160;2023-02-28T15:08:41;99590.94;;;16.34;39.96
66857;BME280;53766;50.280;19.160;2023-02-28T15:11:14;99588.28;;;16.34;40.01
66857;BME280;53766;50.280;19.160;2023-02-28T15:13:47;99588.13;;;16.36;39.91
66857;BME280;53766;50.280;19.160;2023-02-28T15:16:36;99590.94;;;16.34;40.03